首页
METAR-TAF:

METAR-TAF

机场 :

君士坦丁, 阿尔及利亚

纬度: 36-17N, 经度: 006-37E, 海拔: 694米

当前天气观测

该预报发布于35分钟前的07:14 UTC
静风
温度 4°C
湿度 100%
气压 1022 hPa
能見度: 4000
轻雾

METAR: DABC 010714Z 00000KT 4000 BR NSC 04/04 Q1022

时间: 08:49 (07:49 UTC)

预报

该预报发布于2小时和49分钟前的05:00 UTC
预报有效从01日的 06点(UTC)到 02日的 06点(UTC)
风速2节,风向多变
能見度: 2000
少量云层高于2000英尺
轻雾
几率 30% :
短暂存在
从 01日的 06点(UTC)到 01日的 08点(UTC)
能見度: 0400
成为
从 01日的 06点(UTC)到 01日的 08点(UTC)
能見度: 6000
少量云层高于4000英尺
成为
从 01日的 10点(UTC)到 01日的 12点(UTC)
风速8节,风向西转西北
短暂存在
从 01日的 15点(UTC)到 01日的 21点(UTC)
少量云层高于3000英尺, 塔状积云.
成为
从 01日的 19点(UTC)到 01日的 21点(UTC)
风速8节,风向南转西南

TAF: DABC 010500Z 0106/0206 VRB02KT 2000 BR FEW020 PROB30 TEMPO 0106/0108 0400 FG BECMG 0106/0108 6000 FEW040 BECMG 0110/0112 30008KT TEMPO 0115/0121 FEW030TCU BECMG 0119/0121 20008KT

超过4000个机场的气象观测和天气预报(METAR&TAF报告)。

可查询的气象台以黄色和红色小点在地图上表示。

将鼠标移到小点上方,可查看气象台名称。

然后点击查看天气观测和预报。

如需切换地图:点击带黑十字的绿色按钮放大地图;点击带横线的绿色按钮缩小地图;或者点击绿色箭头查看邻近地区的地图。


METAR-TAF: